Time;durP1;ratioP1;P1;durP2;ratioP2;P2;SDS_P1;SDS_P2;PMS_P1;PMS_P2;Temp;Humidity;BMP_temperature;BMP_pressure;BME280_temperature;BME280_humidity;BME280_pressure;Samples;Min_cycle;Max_cycle;Signal;HPM_P1;HPM_P2
2022/03/04 00:00:59;;;;;;;2.47;1.77;;;1.60;99.90;;;;;;5025302;28;20301;-90
2022/03/04 00:03:25;;;;;;;2.27;1.90;;;1.60;99.90;;;;;;5023981;28;20227;-90
2022/03/04 00:05:51;;;;;;;3.27;3.00;;;1.60;99.90;;;;;;5006938;28;20687;-90
2022/03/04 00:08:19;;;;;;;1.40;1.40;;;1.50;99.90;;;;;;5008319;28;20225;-91
2022/03/04 00:10:44;;;;;;;1.50;1.27;;;1.50;99.90;;;;;;5005996;28;20687;-89
2022/03/04 00:13:10;;;;;;;4.37;3.37;;;1.60;99.90;;;;;;4974632;28;20221;-91
2022/03/04 00:15:36;;;;;;;4.43;1.77;;;1.70;99.90;;;;;;5008285;28;20278;-87
2022/03/04 00:18:02;;;;;;;2.47;2.27;;;1.80;99.90;;;;;;5007564;28;20210;-89
2022/03/04 00:20:28;;;;;;;3.30;2.40;;;1.70;99.90;;;;;;4992477;28;20222;-89
2022/03/04 00:22:53;;;;;;;1.13;1.00;;;1.60;99.90;;;;;;5025884;28;20479;-91
2022/03/04 00:25:19;;;;;;;4.47;2.30;;;1.70;99.90;;;;;;4991398;28;20280;-88
2022/03/04 00:27:45;;;;;;;0.80;0.80;;;1.60;99.90;;;;;;4990032;28;20533;-91
2022/03/04 00:30:12;;;;;;;1.70;1.60;;;1.70;99.90;;;;;;5006902;28;20216;-92
2022/03/04 00:32:38;;;;;;;2.83;1.30;;;1.70;99.90;;;;;;4974591;28;20195;-91
2022/03/04 00:35:05;;;;;;;2.37;2.17;;;1.60;99.90;;;;;;5007146;28;20618;-91
2022/03/04 00:37:31;;;;;;;1.73;1.60;;;1.60;99.90;;;;;;5006688;28;20206;-90
2022/03/04 00:39:57;;;;;;;1.47;1.37;;;1.50;99.90;;;;;;5024051;28;20301;-88
2022/03/04 00:42:23;;;;;;;2.07;1.77;;;1.50;99.90;;;;;;4991143;28;20305;-91
2022/03/04 00:44:48;;;;;;;1.90;1.80;;;1.40;99.90;;;;;;5007323;28;20178;-89
2022/03/04 00:47:14;;;;;;;0.73;0.73;;;1.30;99.90;;;;;;4991055;28;20210;-90
2022/03/04 00:49:40;;;;;;;2.77;2.07;;;1.30;99.90;;;;;;5007276;28;20284;-89
2022/03/04 00:52:06;;;;;;;4.33;1.90;;;1.30;99.90;;;;;;4999268;28;20912;-89
2022/03/04 00:54:32;;;;;;;2.60;2.03;;;1.20;99.90;;;;;;5005629;28;20507;-89
2022/03/04 00:56:57;;;;;;;1.83;1.80;;;1.10;99.90;;;;;;5007482;28;20225;-89
2022/03/04 00:59:23;;;;;;;2.53;2.30;;;1.10;99.90;;;;;;4990503;28;20797;-90
2022/03/04 01:01:49;;;;;;;3.97;1.50;;;1.00;99.90;;;;;;5005881;28;20218;-88
2022/03/04 01:04:15;;;;;;;1.13;1.13;;;1.00;99.90;;;;;;4972985;28;20253;-89
2022/03/04 01:06:40;;;;;;;1.43;1.40;;;0.90;99.90;;;;;;4989782;28;20215;-89
2022/03/04 01:09:06;;;;;;;3.93;2.20;;;0.90;99.90;;;;;;4989834;28;20223;-90
2022/03/04 01:11:32;;;;;;;1.97;1.83;;;0.90;99.90;;;;;;5007013;28;20628;-90
2022/03/04 01:13:58;;;;;;;2.00;1.67;;;0.80;99.90;;;;;;5006166;28;20660;-90
2022/03/04 01:16:25;;;;;;;2.13;2.03;;;0.80;99.90;;;;;;4990630;28;20226;-90
2022/03/04 01:18:50;;;;;;;2.10;1.40;;;0.60;99.90;;;;;;5004539;28;20234;-90
2022/03/04 01:21:16;;;;;;;4.10;2.03;;;0.60;99.90;;;;;;4989987;28;20334;-89
2022/03/04 01:23:42;;;;;;;4.37;2.23;;;0.60;99.90;;;;;;4990659;28;20240;-90
2022/03/04 01:26:08;;;;;;;1.13;1.13;;;0.50;99.90;;;;;;5023214;28;20787;-90
2022/03/04 01:28:34;;;;;;;3.27;1.90;;;0.50;99.90;;;;;;4989833;28;20679;-88
2022/03/04 01:31:00;;;;;;;1.40;1.40;;;0.40;99.90;;;;;;4973350;28;20268;-90
2022/03/04 01:33:26;;;;;;;1.43;1.33;;;0.40;99.90;;;;;;4990567;28;20356;-88
2022/03/04 01:35:52;;;;;;;1.73;1.63;;;0.20;99.90;;;;;;4990375;28;20235;-88
2022/03/04 01:38:18;;;;;;;4.03;2.53;;;0.20;99.90;;;;;;4967762;28;20772;-87
2022/03/04 01:40:43;;;;;;;2.23;2.13;;;0.20;99.90;;;;;;4983993;28;20688;-89
2022/03/04 01:43:09;;;;;;;2.87;2.67;;;0.20;99.90;;;;;;4984040;28;20224;-89
2022/03/04 01:45:35;;;;;;;5.07;2.27;;;0.20;99.90;;;;;;4951655;28;20220;-88
2022/03/04 01:48:01;;;;;;;4.63;4.23;;;0.30;99.90;;;;;;4983647;28;20212;-89
2022/03/04 01:50:27;;;;;;;4.13;2.13;;;0.40;99.90;;;;;;4967685;28;20191;-89
2022/03/04 01:52:53;;;;;;;1.90;1.80;;;0.30;99.90;;;;;;4975755;28;20293;-88
2022/03/04 01:55:19;;;;;;;1.67;1.57;;;0.10;99.90;;;;;;4984597;28;20221;-89
2022/03/04 01:57:45;;;;;;;4.50;3.67;;;-0.10;99.90;;;;;;4984350;28;20223;-89
2022/03/04 02:00:12;;;;;;;1.43;1.40;;;-0.10;99.90;;;;;;4994559;28;20231;-90
2022/03/04 02:02:39;;;;;;;3.10;2.00;;;-0.10;99.90;;;;;;4984600;28;20200;-89
2022/03/04 02:05:05;;;;;;;3.93;3.13;;;-0.20;99.90;;;;;;4967887;28;20281;-89
2022/03/04 02:07:31;;;;;;;0.90;0.90;;;-0.20;99.90;;;;;;4982842;28;20656;-89
2022/03/04 02:09:57;;;;;;;2.80;2.60;;;-0.20;99.90;;;;;;4982369;28;20293;-90
2022/03/04 02:12:23;;;;;;;2.73;2.53;;;-0.10;99.90;;;;;;4968588;28;20343;-89
2022/03/04 02:14:48;;;;;;;1.63;1.17;;;0.00;99.90;;;;;;4965607;28;20659;-90
2022/03/04 02:17:14;;;;;;;6.63;1.97;;;0.00;99.90;;;;;;4966994;28;20222;-90
2022/03/04 02:19:40;;;;;;;2.17;1.97;;;0.10;99.90;;;;;;4965990;28;20224;-90
2022/03/04 02:22:07;;;;;;;3.33;3.03;;;0.20;99.90;;;;;;4982472;28;20242;-89
2022/03/04 02:24:33;;;;;;;1.67;1.43;;;0.20;99.90;;;;;;4984276;28;20236;-89
2022/03/04 02:27:02;;;;;;;0.97;0.97;;;0.10;99.90;;;;;;4975803;28;20195;-91
2022/03/04 02:29:30;;;;;;;1.77;1.67;;;0.10;99.90;;;;;;4985354;28;20226;-90
2022/03/04 02:31:56;;;;;;;1.50;1.40;;;0.30;99.90;;;;;;4993555;28;20583;-90
2022/03/04 02:34:22;;;;;;;1.33;1.33;;;0.10;99.90;;;;;;4970047;28;20224;-90
2022/03/04 02:36:49;;;;;;;3.97;2.47;;;0.10;99.90;;;;;;4986222;28;20229;-90
2022/03/04 02:39:15;;;;;;;2.50;1.43;;;0.10;99.90;;;;;;4999691;28;20242;-90
2022/03/04 02:41:41;;;;;;;4.60;2.80;;;0.10;99.90;;;;;;4989530;28;20202;-90
2022/03/04 02:44:11;;;;;;;10.07;3.07;;;0.20;99.90;;;;;;5007882;28;20215;-91
2022/03/04 02:46:38;;;;;;;2.93;2.73;;;0.20;99.90;;;;;;5017265;28;20214;-91
2022/03/04 02:49:08;;;;;;;2.10;2.00;;;0.20;99.90;;;;;;5007180;28;20325;-90
2022/03/04 02:51:34;;;;;;;2.37;2.23;;;0.10;99.90;;;;;;5006788;28;20695;-90
2022/03/04 02:54:00;;;;;;;1.03;1.03;;;0.10;99.90;;;;;;5008166;28;20189;-90
2022/03/04 02:56:26;;;;;;;4.27;2.90;;;0.00;99.90;;;;;;5007682;28;20278;-90
2022/03/04 02:58:52;;;;;;;2.47;2.33;;;0.00;99.90;;;;;;5000449;28;20223;-90
2022/03/04 03:01:18;;;;;;;0.97;0.97;;;0.00;99.90;;;;;;4991140;28;20241;-90
2022/03/04 03:03:44;;;;;;;1.33;1.33;;;-0.10;99.90;;;;;;4990669;28;20226;-90
2022/03/04 03:06:10;;;;;;;2.30;2.20;;;-0.10;99.90;;;;;;4990119;28;20230;-90
2022/03/04 03:08:36;;;;;;;2.10;2.00;;;0.00;99.90;;;;;;4991581;28;20215;-90
2022/03/04 03:11:02;;;;;;;6.27;2.97;;;0.10;99.90;;;;;;5006290;28;20270;-90
2022/03/04 03:13:28;;;;;;;4.03;3.77;;;0.00;99.90;;;;;;5023642;28;20218;-90
2022/03/04 03:15:54;;;;;;;1.03;1.03;;;0.10;99.90;;;;;;5007260;28;20211;-89
2022/03/04 03:18:20;;;;;;;3.77;3.47;;;0.20;99.90;;;;;;5006519;28;20219;-88
2022/03/04 03:20:46;;;;;;;2.13;2.03;;;0.20;99.90;;;;;;4992049;28;20285;-90
2022/03/04 03:23:12;;;;;;;1.47;1.30;;;0.20;99.90;;;;;;4998789;28;20215;-89
2022/03/04 03:25:38;;;;;;;2.63;1.97;;;0.20;99.90;;;;;;4990717;28;20226;-90
2022/03/04 03:28:04;;;;;;;1.90;1.80;;;0.20;99.90;;;;;;4988773;28;20234;-89
2022/03/04 03:30:30;;;;;;;4.33;3.67;;;0.20;99.90;;;;;;5014302;28;20219;-89
2022/03/04 03:32:56;;;;;;;2.67;2.50;;;0.30;99.90;;;;;;5005055;28;20198;-89
2022/03/04 03:35:22;;;;;;;1.73;1.63;;;0.20;99.90;;;;;;5018047;28;20594;-90
2022/03/04 03:37:48;;;;;;;3.13;2.07;;;0.10;99.90;;;;;;5005741;28;20300;-90
2022/03/04 03:40:15;;;;;;;4.77;1.73;;;0.10;99.90;;;;;;5015786;28;20322;-89
2022/03/04 03:42:41;;;;;;;7.43;2.97;;;0.00;99.90;;;;;;4990391;28;20305;-89
2022/03/04 03:45:09;;;;;;;1.70;1.60;;;-0.10;99.90;;;;;;5007620;28;20262;-89
2022/03/04 03:47:35;;;;;;;1.80;1.50;;;-0.10;99.90;;;;;;4981661;28;20647;-89
2022/03/04 03:50:01;;;;;;;1.37;1.27;;;0.00;99.90;;;;;;5006036;28;20218;-90
2022/03/04 03:52:27;;;;;;;2.57;2.47;;;-0.10;99.90;;;;;;5005225;28;20683;-89
2022/03/04 03:54:52;;;;;;;3.20;1.87;;;-0.20;99.90;;;;;;5015322;28;20243;-90
2022/03/04 03:57:18;;;;;;;2.23;2.13;;;-0.20;99.90;;;;;;5016838;28;20231;-90
2022/03/04 03:59:44;;;;;;;1.03;1.03;;;-0.20;99.90;;;;;;4989423;28;20191;-90
2022/03/04 04:02:10;;;;;;;1.23;1.23;;;-0.30;99.90;;;;;;4996419;28;20766;-90
2022/03/04 04:04:35;;;;;;;4.33;2.63;;;-0.20;99.90;;;;;;4974217;28;20701;-90
2022/03/04 04:07:06;;;;;;;3.50;3.00;;;-0.40;99.90;;;;;;4989661;28;20787;-89
2022/03/04 04:09:32;;;;;;;1.83;1.77;;;-0.40;99.90;;;;;;5006165;28;20231;-89
2022/03/04 04:11:59;;;;;;;1.30;0.80;;;-0.40;99.90;;;;;;4999344;28;20543;-90
2022/03/04 04:14:26;;;;;;;0.70;0.70;;;-0.40;99.90;;;;;;5005765;28;20715;-89
2022/03/04 04:16:53;;;;;;;2.30;1.37;;;-0.30;99.90;;;;;;4980737;28;20284;-89
2022/03/04 04:19:19;;;;;;;1.67;1.43;;;-0.40;99.90;;;;;;5015898;28;20226;-90
2022/03/04 04:21:44;;;;;;;2.07;1.97;;;-0.30;99.90;;;;;;5005118;28;20298;-90
2022/03/04 04:24:10;;;;;;;1.30;1.30;;;-0.30;99.90;;;;;;5003690;28;20309;-90
2022/03/04 04:26:36;;;;;;;6.13;1.60;;;-0.30;99.90;;;;;;4989109;28;20183;-89
2022/03/04 04:29:03;;;;;;;2.07;1.00;;;-0.20;99.90;;;;;;4995962;28;20277;-90
2022/03/04 04:31:30;;;;;;;1.50;1.47;;;-0.30;99.90;;;;;;5005584;28;20219;-91
2022/03/04 04:33:55;;;;;;;2.93;2.10;;;-0.30;99.90;;;;;;5013792;28;20202;-91
2022/03/04 04:36:21;;;;;;;2.27;0.93;;;-0.30;99.90;;;;;;5015900;28;20227;-90
2022/03/04 04:38:47;;;;;;;4.37;1.80;;;-0.40;99.90;;;;;;5005797;28;20235;-90
2022/03/04 04:41:13;;;;;;;5.67;1.60;;;-0.30;99.90;;;;;;5004650;28;20652;-90
2022/03/04 04:43:39;;;;;;;1.77;1.67;;;-0.30;99.90;;;;;;4988557;28;20221;-91
2022/03/04 04:46:05;;;;;;;0.67;0.67;;;-0.30;99.90;;;;;;4989069;28;20207;-91
2022/03/04 04:48:32;;;;;;;2.83;1.83;;;-0.30;99.90;;;;;;4987651;28;20266;-91
2022/03/04 04:50:59;;;;;;;1.53;1.47;;;-0.50;99.90;;;;;;5004826;28;20718;-91
2022/03/04 04:53:26;;;;;;;2.63;2.43;;;-0.50;99.90;;;;;;5004930;28;20248;-90
2022/03/04 04:55:51;;;;;;;0.87;0.87;;;-0.60;99.90;;;;;;4972361;28;20221;-90
2022/03/04 04:58:17;;;;;;;1.07;1.07;;;-0.70;99.90;;;;;;4987276;28;20302;-91
2022/03/04 05:00:43;;;;;;;2.67;2.27;;;-0.70;99.90;;;;;;4989608;28;20235;-90
2022/03/04 05:03:09;;;;;;;12.07;1.63;;;-0.70;99.90;;;;;;4990253;28;23443;-90
2022/03/04 05:05:35;;;;;;;0.93;0.93;;;-0.70;99.90;;;;;;4989596;28;20205;-90
2022/03/04 05:08:02;;;;;;;2.23;1.77;;;-0.70;99.90;;;;;;5016978;28;20296;-90
2022/03/04 05:10:28;;;;;;;2.50;2.03;;;-0.80;99.90;;;;;;5016761;28;20219;-90
2022/03/04 05:12:54;;;;;;;1.30;1.27;;;-0.80;99.90;;;;;;4986292;28;20295;-89
2022/03/04 05:15:20;;;;;;;5.23;1.67;;;-0.80;99.90;;;;;;5019368;28;20685;-89
2022/03/04 05:17:50;;;;;;;2.53;2.40;;;-1.00;99.90;;;;;;4988327;28;20190;-90
2022/03/04 05:20:17;;;;;;;2.17;1.43;;;-0.90;99.90;;;;;;5014802;28;20210;-90
2022/03/04 05:22:42;;;;;;;1.23;1.23;;;-1.00;99.90;;;;;;4971973;28;20782;-89
2022/03/04 05:25:08;;;;;;;3.57;1.60;;;-0.90;99.90;;;;;;4972154;28;20297;-90
2022/03/04 05:27:34;;;;;;;1.10;1.10;;;-0.90;99.90;;;;;;5005224;28;20222;-90
2022/03/04 05:30:00;;;;;;;1.67;1.57;;;-0.80;99.90;;;;;;4987742;28;20660;-90
2022/03/04 05:32:25;;;;;;;2.27;2.07;;;-0.80;99.90;;;;;;5005533;28;20205;-89
2022/03/04 05:34:51;;;;;;;2.50;1.00;;;-0.90;99.90;;;;;;4987014;28;20680;-89
2022/03/04 05:37:17;;;;;;;3.53;1.97;;;-1.00;99.90;;;;;;5003678;28;20991;-90
2022/03/04 05:39:43;;;;;;;2.80;2.60;;;-0.90;99.90;;;;;;4987818;28;20731;-90
2022/03/04 05:42:09;;;;;;;1.17;1.17;;;-0.90;99.90;;;;;;4972187;28;20194;-90
2022/03/04 05:44:34;;;;;;;2.60;1.97;;;-1.00;99.90;;;;;;4987055;28;20540;-89
2022/03/04 05:47:00;;;;;;;4.53;3.20;;;-1.00;99.90;;;;;;5005476;28;20329;-89
2022/03/04 05:49:26;;;;;;;1.27;1.23;;;-1.00;99.90;;;;;;4971669;28;20218;-89
2022/03/04 05:51:52;;;;;;;5.40;1.57;;;-1.10;99.90;;;;;;4987133;28;20225;-90
2022/03/04 05:54:18;;;;;;;2.00;1.90;;;-1.10;99.90;;;;;;4988624;28;20222;-89
2022/03/04 05:56:44;;;;;;;1.00;1.00;;;-1.20;99.90;;;;;;4982472;28;20217;-90
2022/03/04 05:59:09;;;;;;;1.90;1.80;;;-1.20;99.90;;;;;;4986704;28;20652;-90
2022/03/04 06:01:35;;;;;;;4.37;0.97;;;-1.10;99.90;;;;;;4986800;28;20276;-90
2022/03/04 06:04:01;;;;;;;0.80;0.80;;;-1.20;99.90;;;;;;4986941;28;20730;-90
2022/03/04 06:06:26;;;;;;;1.03;1.03;;;-1.10;99.90;;;;;;5015821;28;20251;-90
2022/03/04 06:08:52;;;;;;;4.20;3.20;;;-1.10;99.90;;;;;;4970666;28;20241;-89
2022/03/04 06:11:19;;;;;;;3.77;1.97;;;-1.10;99.90;;;;;;5003853;28;20217;-89
2022/03/04 06:13:45;;;;;;;2.53;1.43;;;-1.00;99.90;;;;;;5014642;28;20230;-90
2022/03/04 06:16:11;;;;;;;2.00;1.63;;;-1.00;99.90;;;;;;4987875;28;20258;-89
2022/03/04 06:18:37;;;;;;;0.63;0.63;;;-0.90;99.90;;;;;;5004034;28;20218;-90
2022/03/04 06:21:04;;;;;;;3.23;2.93;;;-1.00;99.90;;;;;;5019489;28;20209;-89
2022/03/04 06:23:30;;;;;;;1.53;1.53;;;-1.00;99.90;;;;;;4981385;28;20196;-90
2022/03/04 06:25:58;;;;;;;0.93;0.93;;;-0.90;99.90;;;;;;5002721;28;20214;-89
2022/03/04 06:28:25;;;;;;;5.03;1.50;;;-0.80;99.90;;;;;;4986896;28;20235;-89
2022/03/04 06:30:51;;;;;;;1.57;1.47;;;-0.80;99.90;;;;;;5011968;28;20500;-89
2022/03/04 06:33:32;;;;;;;1.30;1.20;;;-0.80;99.90;;;;;;5004812;28;20697;-87
2022/03/04 06:36:04;;;;;;;2.20;2.07;;;-0.80;99.90;;;;;;4974284;28;20191;-87
2022/03/04 06:38:32;;;;;;;1.07;0.83;;;-0.80;99.90;;;;;;4994524;28;20286;-89
2022/03/04 06:40:58;;;;;;;2.47;2.13;;;-0.70;99.90;;;;;;5002252;28;20219;-90
2022/03/04 06:43:25;;;;;;;1.00;1.00;;;-0.80;99.90;;;;;;5002902;28;20762;-91
2022/03/04 06:45:51;;;;;;;1.63;1.53;;;-0.80;99.90;;;;;;5002652;28;20218;-90
2022/03/04 06:48:18;;;;;;;2.90;2.57;;;-0.80;99.90;;;;;;4995366;28;20587;-89
2022/03/04 06:50:45;;;;;;;0.60;0.60;;;-0.70;99.90;;;;;;4986954;28;20191;-86
2022/03/04 06:53:10;;;;;;;3.37;1.13;;;-0.70;99.90;;;;;;4977205;28;20665;-87
2022/03/04 06:55:36;;;;;;;2.37;1.63;;;-0.50;99.90;;;;;;4977237;28;20226;-88
2022/03/04 06:58:02;;;;;;;1.17;1.17;;;-0.50;99.90;;;;;;5002313;28;20227;-86
2022/03/04 07:00:29;;;;;;;1.13;1.13;;;-0.50;99.90;;;;;;4985716;28;20219;-86
2022/03/04 07:02:55;;;;;;;0.37;0.33;;;-0.40;99.90;;;;;;5002542;28;20186;-85
2022/03/04 07:05:21;;;;;;;0.80;0.80;;;-0.40;99.90;;;;;;4985534;28;20191;-86
2022/03/04 07:07:49;;;;;;;0.40;0.40;;;-0.40;99.90;;;;;;4999414;28;21142;-88
2022/03/04 07:10:15;;;;;;;2.17;2.07;;;-0.50;99.90;;;;;;4990755;28;20245;-87
2022/03/04 07:12:41;;;;;;;3.23;2.53;;;-0.40;99.90;;;;;;4985080;28;20261;-85
2022/03/04 07:15:08;;;;;;;2.60;2.50;;;-0.30;99.90;;;;;;5002337;28;20705;-88
2022/03/04 07:17:34;;;;;;;0.97;0.93;;;-0.30;99.90;;;;;;5003376;28;20196;-88
2022/03/04 07:20:00;;;;;;;0.87;0.83;;;-0.30;99.90;;;;;;4988010;28;20742;-85
2022/03/04 07:22:25;;;;;;;0.63;0.63;;;-0.40;99.90;;;;;;4988958;28;20215;-91
2022/03/04 07:24:51;;;;;;;0.67;0.67;;;-0.30;99.90;;;;;;5005841;28;20735;-89
2022/03/04 07:27:17;;;;;;;1.63;1.63;;;-0.20;99.90;;;;;;4973029;28;20306;-89
2022/03/04 07:29:42;;;;;;;5.90;2.37;;;-0.10;99.90;;;;;;4982464;28;20217;-89
2022/03/04 07:32:08;;;;;;;4.17;1.83;;;-0.10;99.90;;;;;;4970114;28;20219;-89
2022/03/04 07:34:34;;;;;;;5.63;2.20;;;0.00;99.90;;;;;;4990859;28;20214;-88
2022/03/04 07:37:00;;;;;;;2.57;1.43;;;0.00;99.90;;;;;;4987999;28;20218;-93
2022/03/04 07:39:26;;;;;;;3.13;1.67;;;-0.10;99.90;;;;;;5002811;28;20688;-92
2022/03/04 07:41:51;;;;;;;1.03;0.93;;;0.00;99.90;;;;;;4977376;28;20214;-92
2022/03/04 07:44:18;;;;;;;2.03;1.93;;;0.10;99.90;;;;;;4948296;28;20199;-91
2022/03/04 07:46:44;;;;;;;1.57;1.47;;;0.10;99.90;;;;;;4977170;28;20650;-91
2022/03/04 07:49:10;;;;;;;2.00;1.90;;;0.00;99.90;;;;;;4995426;28;20263;-91
2022/03/04 07:51:36;;;;;;;2.10;1.90;;;0.00;99.90;;;;;;4997431;28;20242;-90
2022/03/04 07:54:03;;;;;;;1.40;1.30;;;0.10;99.90;;;;;;4991825;28;20660;-92
2022/03/04 07:56:28;;;;;;;2.70;2.50;;;0.10;99.90;;;;;;4979288;28;20195;-90
2022/03/04 07:58:54;;;;;;;10.33;4.00;;;0.10;99.90;;;;;;4996415;28;20513;-92
2022/03/04 08:01:20;;;;;;;1.63;1.53;;;0.30;99.90;;;;;;4978083;28;20485;-90
2022/03/04 08:03:46;;;;;;;1.83;1.27;;;0.20;99.90;;;;;;4997350;28;20290;-92
2022/03/04 08:06:13;;;;;;;1.87;1.73;;;0.30;99.90;;;;;;4960991;28;20218;-91
2022/03/04 08:08:39;;;;;;;2.50;2.30;;;0.20;99.90;;;;;;4975964;28;20333;-92
2022/03/04 08:11:06;;;;;;;3.27;1.87;;;0.20;99.90;;;;;;4960187;28;20215;-90
2022/03/04 08:13:34;;;;;;;3.50;2.50;;;0.10;99.90;;;;;;4962199;28;20211;-91
2022/03/04 08:16:00;;;;;;;2.43;2.33;;;0.10;99.90;;;;;;4976735;28;20285;-88
2022/03/04 08:18:26;;;;;;;2.10;1.60;;;0.10;99.90;;;;;;4977463;28;20220;-91
2022/03/04 08:20:53;;;;;;;4.53;2.77;;;0.20;99.90;;;;;;4978641;28;20610;-89
2022/03/04 08:23:19;;;;;;;1.43;1.33;;;0.20;99.90;;;;;;4963393;28;20491;-91
2022/03/04 08:25:45;;;;;;;1.47;1.37;;;0.20;99.90;;;;;;4994453;28;20223;-93
2022/03/04 08:28:10;;;;;;;2.67;2.40;;;0.30;99.90;;;;;;4960724;28;20571;-93
2022/03/04 08:30:36;;;;;;;1.70;1.60;;;0.40;99.90;;;;;;4948105;28;20227;-90
2022/03/04 08:33:02;;;;;;;1.47;1.37;;;0.30;99.90;;;;;;4994162;28;20198;-91
2022/03/04 08:35:28;;;;;;;1.73;1.17;;;0.20;99.90;;;;;;4975028;28;20200;-92
2022/03/04 08:37:54;;;;;;;2.60;2.40;;;0.10;99.90;;;;;;4960136;28;20219;-92
2022/03/04 08:40:21;;;;;;;1.57;1.47;;;0.20;99.90;;;;;;4989181;28;20719;-91
2022/03/04 08:42:46;;;;;;;1.63;1.53;;;0.30;99.90;;;;;;4959909;28;20681;-91
2022/03/04 08:45:15;;;;;;;1.00;1.00;;;0.30;99.90;;;;;;4977349;28;20237;-90
2022/03/04 08:47:43;;;;;;;1.33;1.23;;;0.40;99.90;;;;;;4991213;28;20701;-93
2022/03/04 08:50:11;;;;;;;1.67;1.57;;;0.40;99.90;;;;;;4975927;28;20216;-94
2022/03/04 08:52:37;;;;;;;2.93;1.87;;;0.60;99.90;;;;;;4991911;28;20227;-91
2022/03/04 08:55:07;;;;;;;4.60;2.37;;;0.60;99.90;;;;;;4972800;28;20267;-93
2022/03/04 08:57:33;;;;;;;3.07;2.83;;;0.80;99.90;;;;;;4993179;28;20323;-92
2022/03/04 08:59:59;;;;;;;2.47;1.57;;;0.70;99.90;;;;;;4974558;28;20932;-92
2022/03/04 09:02:25;;;;;;;4.57;2.10;;;0.80;99.90;;;;;;4984941;28;20211;-90
2022/03/04 09:04:51;;;;;;;4.27;2.67;;;0.60;99.90;;;;;;4976741;28;20350;-93
2022/03/04 09:07:16;;;;;;;2.33;2.20;;;0.60;99.90;;;;;;4976947;28;20580;-90
2022/03/04 09:09:43;;;;;;;3.23;3.03;;;0.80;99.90;;;;;;4978348;28;20689;-91
2022/03/04 09:12:09;;;;;;;4.17;3.87;;;0.90;99.90;;;;;;4978272;28;20490;-91
2022/03/04 09:14:36;;;;;;;1.20;1.13;;;1.00;99.90;;;;;;4997471;28;20180;-90
2022/03/04 09:17:02;;;;;;;2.63;1.20;;;0.80;99.90;;;;;;4997815;28;20216;-91
2022/03/04 09:19:30;;;;;;;3.03;2.67;;;1.00;99.90;;;;;;4994884;28;20243;-90
2022/03/04 09:21:56;;;;;;;2.20;2.10;;;1.00;99.90;;;;;;4995422;28;20685;-90
2022/03/04 09:24:22;;;;;;;3.43;2.63;;;1.10;99.90;;;;;;4996593;28;20219;-94
2022/03/04 09:26:48;;;;;;;3.77;2.57;;;1.00;99.90;;;;;;4981206;28;20191;-90
2022/03/04 09:29:14;;;;;;;3.23;1.20;;;1.00;99.90;;;;;;4994757;28;20269;-94
2022/03/04 09:31:39;;;;;;;2.67;2.20;;;1.10;99.90;;;;;;4994235;28;20265;-93
2022/03/04 09:34:05;;;;;;;3.20;3.00;;;1.40;99.90;;;;;;4995733;28;20793;-88
2022/03/04 09:36:31;;;;;;;2.67;2.37;;;1.40;99.90;;;;;;4993305;28;20250;-90
2022/03/04 09:38:58;;;;;;;3.50;3.10;;;1.50;99.90;;;;;;4997214;28;20317;-89
2022/03/04 09:41:25;;;;;;;3.60;2.13;;;1.50;99.90;;;;;;5005278;28;20234;-89
2022/03/04 09:43:53;;;;;;;13.27;3.17;;;1.80;99.90;;;;;;5020414;28;20219;-92
2022/03/04 09:46:23;;;;;;;6.63;2.43;;;1.90;99.90;;;;;;5002672;28;20218;-90
2022/03/04 09:48:50;;;;;;;4.97;4.53;;;1.90;99.90;;;;;;5020997;28;20294;-90
2022/03/04 09:51:16;;;;;;;2.43;2.23;;;1.90;99.90;;;;;;5001562;28;20241;-90
2022/03/04 09:53:43;;;;;;;3.10;2.23;;;1.80;99.90;;;;;;5005304;28;20187;-89
2022/03/04 09:56:09;;;;;;;3.03;2.67;;;1.70;99.90;;;;;;5005251;28;20679;-88
2022/03/04 09:58:37;;;;;;;4.70;3.47;;;2.00;99.90;;;;;;5004144;28;20308;-88
2022/03/04 10:01:09;;;;;;;3.57;1.87;;;2.00;99.90;;;;;;4990669;28;20214;-86
2022/03/04 10:03:34;;;;;;;2.50;2.30;;;2.20;99.90;;;;;;5007142;28;20218;-87
2022/03/04 10:06:04;;;;;;;3.20;3.07;;;2.30;99.90;;;;;;5022033;28;20683;-86
2022/03/04 10:08:37;;;;;;;6.23;3.33;;;2.60;99.90;;;;;;5006640;28;20297;-86
2022/03/04 10:11:03;;;;;;;5.33;2.77;;;2.70;99.90;;;;;;5024723;28;20215;-87
2022/03/04 10:13:49;;;;;;;11.57;5.93;;;3.20;99.90;;;;;;5024099;28;20229;-87
2022/03/04 10:16:30;;;;;;;11.67;4.57;;;3.40;99.90;;;;;;5020479;28;20219;-87
2022/03/04 10:19:19;;;;;;;2.57;2.37;;;3.60;99.90;;;;;;5006593;28;20238;-86
2022/03/04 10:21:44;;;;;;;3.47;2.47;;;3.20;99.90;;;;;;5022046;28;20214;-88
2022/03/04 10:24:10;;;;;;;3.73;3.50;;;3.30;99.90;;;;;;5008866;28;20792;-88
2022/03/04 10:26:36;;;;;;;5.50;3.03;;;3.30;99.90;;;;;;4991543;28;20201;-88
2022/03/04 10:29:17;;;;;;;6.13;2.97;;;3.20;99.90;;;;;;5007048;28;20226;-87
2022/03/04 10:32:06;;;;;;;4.00;3.50;;;3.40;99.90;;;;;;5015236;28;20245;-89
2022/03/04 10:34:58;;;;;;;5.27;3.80;;;3.40;99.90;;;;;;5023592;28;20233;-86
2022/03/04 10:37:56;;;;;;;2.13;1.93;;;3.50;99.90;;;;;;5024478;28;20701;-85
2022/03/04 10:40:42;;;;;;;2.30;2.13;;;3.40;99.90;;;;;;5019819;28;20219;-83
2022/03/04 10:43:09;;;;;;;6.13;4.00;;;4.30;99.90;;;;;;5004465;28;20312;-90
2022/03/04 10:45:40;;;;;;;4.57;3.97;;;5.00;99.90;;;;;;5004210;28;20222;-87
2022/03/04 10:48:09;;;;;;;11.83;5.30;;;4.90;99.90;;;;;;5024726;28;20207;-85
2022/03/04 10:50:39;;;;;;;4.13;3.57;;;4.90;99.90;;;;;;4989556;28;20560;-84
2022/03/04 10:53:10;;;;;;;4.83;4.00;;;5.30;99.90;;;;;;5022054;28;20215;-80
2022/03/04 10:55:42;;;;;;;13.67;6.17;;;5.40;99.90;;;;;;5006070;28;20214;-83
2022/03/04 10:58:42;;;;;;;6.07;5.23;;;5.20;99.90;;;;;;5006337;28;20221;-82
2022/03/04 11:01:18;;;;;;;6.23;4.40;;;5.10;99.90;;;;;;5004922;28;20219;-85
2022/03/04 11:03:44;;;;;;;8.60;4.50;;;5.60;99.90;;;;;;5017183;28;20218;-85
2022/03/04 11:06:12;;;;;;;5.37;4.60;;;5.70;99.90;;;;;;4988641;28;20231;-84
2022/03/04 11:08:39;;;;;;;4.70;3.23;;;5.90;99.90;;;;;;5007402;28;20210;-85
2022/03/04 11:11:07;;;;;;;4.43;4.03;;;5.90;99.90;;;;;;4990813;28;20211;-85
2022/03/04 11:13:34;;;;;;;6.70;5.63;;;6.00;99.90;;;;;;4991047;28;20222;-83
2022/03/04 11:16:01;;;;;;;4.20;3.07;;;6.20;99.90;;;;;;4989635;28;20210;-86
2022/03/04 11:18:27;;;;;;;6.03;4.23;;;6.40;99.90;;;;;;5004727;28;20222;-83
2022/03/04 11:20:57;;;;;;;10.33;5.50;;;6.40;99.90;;;;;;5025166;28;20183;-86
2022/03/04 11:23:29;;;;;;;7.23;3.40;;;6.60;99.90;;;;;;4974167;28;20179;-84
2022/03/04 11:26:00;;;;;;;5.20;3.50;;;6.70;99.90;;;;;;5006227;28;20245;-85
2022/03/04 11:28:35;;;;;;;5.87;4.13;;;6.60;99.90;;;;;;5025602;28;20854;-84
2022/03/04 11:31:06;;;;;;;5.77;3.37;;;6.80;99.90;;;;;;5024600;28;20226;-82
2022/03/04 11:33:38;;;;;;;6.90;4.67;;;7.40;99.90;;;;;;5023903;28;20229;-83
2022/03/04 11:36:07;;;;;;;5.53;3.53;;;7.40;99.90;;;;;;5007875;28;20190;-86
2022/03/04 11:38:48;;;;;;;4.93;3.70;;;7.20;99.90;;;;;;5013117;28;20195;-85
2022/03/04 11:41:24;;;;;;;4.23;3.93;;;7.20;99.90;;;;;;5023657;28;20230;-86
2022/03/04 11:43:52;;;;;;;4.70;3.27;;;7.20;99.90;;;;;;5021241;28;20229;-87
2022/03/04 11:46:28;;;;;;;7.77;4.40;;;7.40;99.90;;;;;;4990848;28;20302;-85
2022/03/04 11:49:27;;;;;;;8.23;5.03;;;7.10;99.90;;;;;;5023747;28;20493;-85
2022/03/04 11:52:15;;;;;;;4.13;3.73;;;7.40;99.90;;;;;;5004722;28;20340;-84
2022/03/04 11:54:51;;;;;;;6.70;3.77;;;7.70;99.90;;;;;;5005292;28;20230;-85
2022/03/04 11:57:34;;;;;;;10.27;4.37;;;7.40;99.90;;;;;;5005667;28;20272;-83
2022/03/04 12:00:21;;;;;;;6.37;3.33;;;8.00;99.90;;;;;;5005886;28;20202;-83
2022/03/04 12:02:51;;;;;;;10.40;5.20;;;8.00;99.90;;;;;;5006179;28;20200;-83
2022/03/04 12:05:19;;;;;;;6.73;3.90;;;8.00;99.90;;;;;;5023281;28;20226;-84
2022/03/04 12:07:52;;;;;;;9.00;4.40;;;7.90;99.90;;;;;;5022895;28;20241;-83
2022/03/04 12:10:20;;;;;;;8.13;3.13;;;8.10;99.90;;;;;;5023037;28;20222;-85
2022/03/04 12:13:04;;;;;;;5.80;4.10;;;8.20;99.90;;;;;;4988912;28;20309;-84
2022/03/04 12:15:41;;;;;;;4.77;4.07;;;7.90;99.90;;;;;;5024099;28;20330;-85
2022/03/04 12:18:20;;;;;;;8.40;4.83;;;7.90;99.90;;;;;;5005792;28;20190;-86
2022/03/04 12:20:46;;;;;;;7.00;3.90;;;7.70;99.90;;;;;;5024208;28;20191;-87
2022/03/04 12:23:14;;;;;;;9.73;5.30;;;7.80;99.90;;;;;;5007361;28;20231;-86
2022/03/04 12:25:53;;;;;;;5.97;4.13;;;8.10;99.90;;;;;;4992126;28;20234;-86
2022/03/04 12:28:34;;;;;;;9.23;4.63;;;8.10;99.90;;;;;;5006754;28;20222;-86
2022/03/04 12:31:04;;;;;;;5.37;3.83;;;8.10;99.90;;;;;;5029302;28;20218;-91
2022/03/04 12:33:33;;;;;;;4.20;3.67;;;8.00;99.90;;;;;;5012053;28;20322;-93
2022/03/04 12:36:00;;;;;;;7.47;4.13;;;7.70;99.90;;;;;;5013610;28;20204;-91
2022/03/04 12:38:40;;;;;;;5.00;3.30;;;7.70;99.90;;;;;;5009570;28;20225;-93
2022/03/04 12:41:14;;;;;;;9.20;4.60;;;7.80;99.90;;;;;;5037830;28;20206;-90
2022/03/04 12:43:40;;;;;;;5.37;4.63;;;7.80;99.90;;;;;;5039510;28;20280;-91
2022/03/04 12:46:07;;;;;;;4.10;3.03;;;7.90;99.90;;;;;;5022269;28;20667;-88
2022/03/04 12:48:33;;;;;;;3.87;3.30;;;8.00;99.90;;;;;;5033549;28;20241;-93
2022/03/04 12:50:59;;;;;;;7.37;3.87;;;7.80;99.90;;;;;;4994017;28;20198;-89
2022/03/04 12:53:30;;;;;;;3.37;2.87;;;7.80;99.90;;;;;;4989050;28;20186;-92
2022/03/04 12:55:57;;;;;;;3.27;2.70;;;7.90;99.90;;;;;;5021902;28;20210;-89